Phoenix, AZ - PHX

The Valley of the Sun

The Phoenix Sky Harbor International Airport is located in the middle of downtown Phoenix, AZ which is the fifth most populus in the United States and serves as a major hub for American Airlines. AAG alone makes up over 50% of the operations out of the PHX airport making it a key connection point for the south western United States.

PHX Based Pilots: 10   Miles to PHX: 171796
Flights from PHX: 246   Total Hours: 896.72
Routes using PHX: 951   From PHX: 412.8
Total Miles: 326244   Hours To PHX: 483.92
Miles from PHX: 154448   PHX Charts: Click Here
VATSIM METAR: KPHX 012151Z 00000KT 10SM FEW040 FEW100 FEW200 BKN250 28/M03 A3002 RMK AO2 SLP154 FU FEW040 NE T02831033
 
         
View More: Click Here
   

 

Earn Your Wings

Interested in joining our PHX hub? Hover for more!

Your journey starts here. Your journey starts now. A whole new experience is at your fingertips.

Like what you see and ready to join the team?

A rewarding and memorable virtual airline experience awaits!